createdAt,value
2023-03-12T00:00:56.350Z,-1.00
2023-03-12T00:04:03.252Z,-1.70
2023-03-12T00:07:08.930Z,-0.80
2023-03-12T00:10:13.391Z,-1.60
2023-03-12T00:13:16.717Z,-1.70
2023-03-12T00:16:20.340Z,-1.50
2023-03-12T00:19:25.047Z,-0.50
2023-03-12T00:22:28.398Z,-0.80
2023-03-12T00:25:31.827Z,-1.40
2023-03-12T00:28:36.068Z,-0.70
2023-03-12T00:31:39.396Z,-0.40
2023-03-12T00:34:44.357Z,-0.70
2023-03-12T00:37:47.603Z,-0.80
2023-03-12T00:40:50.915Z,-0.50
2023-03-12T00:43:54.290Z,-1.10
2023-03-12T00:46:57.694Z,-1.30
2023-03-12T00:50:02.354Z,-1.20
2023-03-12T00:53:05.731Z,-1.00
2023-03-12T00:56:09.558Z,-1.40
2023-03-12T00:59:13.280Z,-1.00
2023-03-12T01:02:16.690Z,-1.40
2023-03-12T01:05:21.562Z,-1.20
2023-03-12T01:08:25.280Z,-1.40
2023-03-12T01:11:28.570Z,-1.30
2023-03-12T01:14:32.714Z,-0.70
2023-03-12T01:17:35.913Z,-0.40
2023-03-12T01:20:41.343Z,-1.20
2023-03-12T01:23:44.633Z,-0.70
2023-03-12T01:26:48.656Z,0.30
2023-03-12T01:29:51.966Z,-1.20
2023-03-12T01:32:55.579Z,-0.40
2023-03-12T01:36:01.388Z,-1.30
2023-03-12T01:39:05.067Z,-0.70
2023-03-12T01:42:08.745Z,-1.40
2023-03-12T01:45:45.388Z,-1.50
2023-03-12T01:48:52.386Z,-1.50
2023-03-12T01:52:03.440Z,-1.60
2023-03-12T01:55:16.531Z,-1.00
2023-03-12T01:58:22.303Z,-1.00
2023-03-12T02:01:26.887Z,-1.60
2023-03-12T02:04:33.116Z,-1.70
2023-03-12T02:07:38.653Z,-1.60
2023-03-12T02:10:41.828Z,-1.60
2023-03-12T02:13:45.809Z,-1.10
2023-03-12T02:16:49.766Z,-1.80
2023-03-12T02:20:01.579Z,-1.70
2023-03-12T02:23:09.979Z,-1.70
2023-03-12T02:26:16.016Z,-1.70
2023-03-12T02:29:19.808Z,-1.20
2023-03-12T02:32:27.233Z,-1.70
2023-03-12T02:35:30.910Z,-1.80
2023-03-12T02:38:38.705Z,-1.80
2023-03-12T02:41:46.135Z,-1.90
2023-03-12T02:44:50.447Z,-1.90
2023-03-12T02:47:54.654Z,-2.00
2023-03-12T02:50:57.947Z,-1.90
2023-03-12T02:54:01.451Z,-1.90
2023-03-12T02:57:06.138Z,-1.90
2023-03-12T03:03:28.249Z,-2.00
2023-03-12T03:06:32.508Z,-1.90
2023-03-12T03:09:35.727Z,-1.90
2023-03-12T03:12:41.289Z,-1.90
2023-03-12T03:15:44.853Z,-1.90
2023-03-12T03:18:48.510Z,-2.00
2023-03-12T03:21:51.853Z,-2.00
2023-03-12T03:24:55.951Z,-2.00
2023-03-12T03:28:00.551Z,-1.70
2023-03-12T03:31:04.425Z,-1.90
2023-03-12T03:34:12.494Z,-1.90
2023-03-12T03:37:15.823Z,-1.90
2023-03-12T03:40:19.680Z,-2.00
2023-03-12T03:43:24.706Z,-1.30
2023-03-12T03:46:28.326Z,-0.50
2023-03-12T03:49:37.091Z,-2.00
2023-03-12T03:52:40.412Z,-1.80
2023-03-12T03:55:43.702Z,-0.50
2023-03-12T03:58:48.526Z,-1.80
2023-03-12T04:01:53.698Z,-1.70
2023-03-12T04:04:59.366Z,-1.60
2023-03-12T04:08:04.306Z,-1.60
2023-03-12T04:11:12.978Z,-0.20
2023-03-12T04:14:17.555Z,-1.50
2023-03-12T04:17:22.242Z,-1.50
2023-03-12T04:20:25.430Z,-1.50
2023-03-12T04:23:28.846Z,-1.40
2023-03-12T04:26:32.854Z,-1.50
2023-03-12T04:29:39.225Z,-1.40
2023-03-12T04:32:42.702Z,-1.00
2023-03-12T04:35:52.793Z,-1.00
2023-03-12T04:38:57.600Z,-1.40
2023-03-12T04:42:05.729Z,-1.40
2023-03-12T04:45:12.610Z,-1.40
2023-03-12T04:48:20.471Z,-1.40
2023-03-12T04:51:25.047Z,-1.40
2023-03-12T04:54:28.568Z,-1.10
2023-03-12T04:57:32.159Z,-1.40
2023-03-12T05:00:37.163Z,-1.40
2023-03-12T05:03:40.534Z,-1.40
2023-03-12T05:06:44.077Z,-1.40
2023-03-12T05:09:47.729Z,-0.20
2023-03-12T05:12:51.284Z,-1.10
2023-03-12T05:15:57.357Z,-1.30
2023-03-12T05:19:02.263Z,-1.30
2023-03-12T05:22:06.636Z,-1.20
2023-03-12T05:25:11.667Z,-1.20
2023-03-12T05:28:15.012Z,-1.20
2023-03-12T05:31:20.563Z,-1.10
2023-03-12T05:34:24.820Z,-1.10
2023-03-12T05:37:29.110Z,-1.10
2023-03-12T05:40:32.471Z,-1.10
2023-03-12T05:43:36.424Z,-1.00
2023-03-12T05:46:41.632Z,-1.00
2023-03-12T05:49:45.150Z,-0.90
2023-03-12T05:52:48.592Z,-0.80
2023-03-12T05:55:52.262Z,-0.70
2023-03-12T05:58:55.945Z,-0.70
2023-03-12T06:02:00.728Z,-0.70
2023-03-12T06:05:04.505Z,-0.70
2023-03-12T06:08:07.857Z,-0.70
2023-03-12T06:11:11.353Z,-0.70
2023-03-12T06:14:14.813Z,-0.70
2023-03-12T06:17:19.798Z,-0.50
2023-03-12T06:20:25.028Z,0.40
2023-03-12T06:23:28.364Z,-0.60
2023-03-12T06:26:31.576Z,-0.60
2023-03-12T06:29:34.776Z,-0.50
2023-03-12T06:32:39.398Z,-0.30
2023-03-12T06:35:43.146Z,-0.30
2023-03-12T06:38:46.545Z,-0.60
2023-03-12T06:41:49.808Z,-0.50
2023-03-12T06:44:53.545Z,-0.50
2023-03-12T06:47:58.347Z,-0.50
2023-03-12T06:51:01.869Z,-0.30
2023-03-12T06:54:05.766Z,-0.20
2023-03-12T06:57:10.369Z,-0.40
2023-03-12T07:00:15.047Z,0.10
2023-03-12T07:03:19.816Z,-0.40
2023-03-12T07:06:25.008Z,-0.30
2023-03-12T07:09:28.417Z,-0.30
2023-03-12T07:12:31.558Z,-0.20
2023-03-12T07:15:34.920Z,0.00
2023-03-12T07:18:39.532Z,-0.10
2023-03-12T07:21:42.781Z,-0.10
2023-03-12T07:24:46.170Z,-0.10
2023-03-12T07:27:49.661Z,-0.10
2023-03-12T07:30:53.038Z,-0.10
2023-03-12T07:33:58.140Z,-0.10
2023-03-12T07:37:01.778Z,0.00
2023-03-12T07:40:07.369Z,0.10
2023-03-12T07:43:12.815Z,0.10
2023-03-12T07:46:18.581Z,0.00
2023-03-12T07:49:23.404Z,0.10
2023-03-12T07:52:27.252Z,0.10
2023-03-12T07:55:30.862Z,0.10
2023-03-12T07:58:36.486Z,0.20
2023-03-12T08:01:40.193Z,0.20
2023-03-12T08:04:45.498Z,0.30
2023-03-12T08:07:51.412Z,0.50
2023-03-12T08:10:55.028Z,0.50
2023-03-12T08:13:58.369Z,0.60
2023-03-12T08:17:02.356Z,0.60
2023-03-12T08:20:10.291Z,0.70
2023-03-12T08:23:14.126Z,0.70
2023-03-12T08:26:17.575Z,0.70
2023-03-12T08:29:21.677Z,0.70
2023-03-12T08:32:28.946Z,0.70
2023-03-12T08:35:35.822Z,0.80
2023-03-12T08:38:40.438Z,0.90
2023-03-12T08:41:46.288Z,1.00
2023-03-12T08:44:50.763Z,1.00
2023-03-12T08:47:54.809Z,1.10
2023-03-12T08:51:06.378Z,1.10
2023-03-12T08:54:10.451Z,0.90
2023-03-12T08:57:13.900Z,0.80
2023-03-12T09:00:18.205Z,0.60
2023-03-12T09:03:22.632Z,0.70
2023-03-12T09:06:28.915Z,0.60
2023-03-12T09:09:32.853Z,0.60
2023-03-12T09:12:37.874Z,0.70
2023-03-12T09:15:41.165Z,0.80
2023-03-12T09:18:46.934Z,0.80
2023-03-12T09:21:52.937Z,0.80
2023-03-12T09:24:58.246Z,0.80
2023-03-12T09:28:02.702Z,0.70
2023-03-12T09:31:07.091Z,0.70
2023-03-12T09:34:10.519Z,0.80
2023-03-12T09:37:15.831Z,0.90
2023-03-12T09:40:23.124Z,1.20
2023-03-12T09:43:30.380Z,1.20
2023-03-12T09:46:39.585Z,1.30
2023-03-12T09:49:47.082Z,1.00
2023-03-12T09:52:58.107Z,0.80
2023-03-12T09:56:09.279Z,0.80
2023-03-12T09:59:15.736Z,0.80
2023-03-12T10:02:46.112Z,0.80
2023-03-12T10:05:57.179Z,0.90
2023-03-12T10:09:29.128Z,1.20
2023-03-12T10:12:51.416Z,1.50
2023-03-12T10:16:26.279Z,1.40
2023-03-12T10:19:48.291Z,1.50
2023-03-12T10:23:01.652Z,1.60
2023-03-12T10:26:19.110Z,1.80
2023-03-12T10:29:31.415Z,2.00
2023-03-12T10:32:49.333Z,2.10
2023-03-12T10:36:05.314Z,1.50
2023-03-12T10:39:16.587Z,1.30
2023-03-12T10:42:39.786Z,1.20
2023-03-12T10:45:51.485Z,1.10
2023-03-12T10:49:25.929Z,1.20
2023-03-12T10:52:33.363Z,1.40
2023-03-12T10:56:16.189Z,1.40
2023-03-12T10:59:31.011Z,1.50
2023-03-12T11:02:49.690Z,1.50
2023-03-12T11:06:04.306Z,1.60
2023-03-12T11:09:24.184Z,1.50
2023-03-12T11:12:38.005Z,1.70
2023-03-12T11:15:56.330Z,2.30
2023-03-12T11:19:27.675Z,2.60
2023-03-12T11:22:44.142Z,2.50
2023-03-12T11:25:59.853Z,3.00
2023-03-12T11:29:11.797Z,3.20
2023-03-12T11:32:28.858Z,3.10
2023-03-12T11:35:52.415Z,3.20
2023-03-12T11:39:10.077Z,4.00
2023-03-12T11:42:34.114Z,3.80
2023-03-12T11:45:49.552Z,4.10
2023-03-12T11:49:15.675Z,4.20
2023-03-12T11:52:33.808Z,4.60
2023-03-12T11:55:54.552Z,4.70
2023-03-12T11:59:39.991Z,4.90
2023-03-12T12:03:09.333Z,4.80
2023-03-12T12:06:37.738Z,4.60
2023-03-12T12:09:53.116Z,5.20
2023-03-12T12:13:10.073Z,5.90
2023-03-12T12:16:26.467Z,5.60
2023-03-12T12:19:50.476Z,6.10
2023-03-12T12:23:11.798Z,5.70
2023-03-12T12:26:34.148Z,5.90
2023-03-12T12:30:02.009Z,6.10
2023-03-12T12:33:23.825Z,6.00
2023-03-12T12:36:33.859Z,5.60
2023-03-12T12:39:52.380Z,5.60
2023-03-12T12:43:11.385Z,5.40
2023-03-12T12:46:41.535Z,5.00
2023-03-12T12:49:53.125Z,5.00
2023-03-12T12:53:11.220Z,4.70
2023-03-12T12:56:23.605Z,3.80
2023-03-12T12:59:43.713Z,3.70
2023-03-12T13:02:53.048Z,4.50
2023-03-12T13:06:08.985Z,5.00
2023-03-12T13:09:20.522Z,5.60
2023-03-12T13:12:49.498Z,6.30
2023-03-12T13:16:43.365Z,5.50
2023-03-12T13:20:01.472Z,5.00
2023-03-12T13:23:41.971Z,4.70
2023-03-12T13:27:06.879Z,5.80
2023-03-12T13:31:00.654Z,6.30
2023-03-12T13:34:52.447Z,5.20
2023-03-12T13:38:08.463Z,4.40
2023-03-12T13:41:55.383Z,3.90
2023-03-12T13:45:24.065Z,3.50
2023-03-12T13:48:41.194Z,3.90
2023-03-12T13:52:03.611Z,4.00
2023-03-12T13:55:29.125Z,4.20
2023-03-12T13:59:24.403Z,4.20
2023-03-12T14:02:41.439Z,4.80
2023-03-12T14:06:02.474Z,5.20
2023-03-12T14:09:28.212Z,5.20
2023-03-12T14:12:52.250Z,5.50
2023-03-12T14:16:18.626Z,6.00
2023-03-12T14:19:37.699Z,6.00
2023-03-12T14:22:56.804Z,5.80
2023-03-12T14:26:12.760Z,5.50
2023-03-12T14:29:28.928Z,5.30
2023-03-12T14:32:43.947Z,4.90
2023-03-12T14:36:05.890Z,5.20
2023-03-12T14:39:31.671Z,5.70
2023-03-12T14:42:37.667Z,5.30
2023-03-12T14:45:46.254Z,5.20
2023-03-12T14:48:55.293Z,5.40
2023-03-12T14:52:09.198Z,5.20
2023-03-12T14:55:25.981Z,5.20
2023-03-12T14:58:32.080Z,5.30
2023-03-12T15:01:46.594Z,5.20
2023-03-12T15:05:11.653Z,5.20
2023-03-12T15:08:21.116Z,5.30
2023-03-12T15:11:42.863Z,5.40
2023-03-12T15:14:54.936Z,5.10
2023-03-12T15:18:02.497Z,4.90
2023-03-12T15:21:11.503Z,4.60
2023-03-12T15:24:21.610Z,4.70
2023-03-12T15:27:55.532Z,4.70
2023-03-12T15:31:21.874Z,4.30
2023-03-12T15:35:00.449Z,4.20
2023-03-12T15:38:26.392Z,3.90
2023-03-12T15:41:43.028Z,3.80
2023-03-12T15:45:03.478Z,3.80
2023-03-12T15:48:16.227Z,3.70
2023-03-12T15:51:36.793Z,3.50
2023-03-12T15:54:48.582Z,3.40
2023-03-12T15:57:58.014Z,3.20
2023-03-12T16:01:32.162Z,3.10
2023-03-12T16:04:43.434Z,3.00
2023-03-12T16:07:52.842Z,2.90
2023-03-12T16:11:00.993Z,2.90
2023-03-12T16:14:11.241Z,2.70
2023-03-12T16:17:20.946Z,2.60
2023-03-12T16:20:35.979Z,2.60
2023-03-12T16:23:42.091Z,2.50
2023-03-12T16:26:51.883Z,2.40
2023-03-12T16:30:04.724Z,2.40
2023-03-12T16:33:17.212Z,2.40
2023-03-12T16:36:23.842Z,2.40
2023-03-12T16:39:33.333Z,2.40
2023-03-12T16:42:44.700Z,2.30
2023-03-12T16:45:49.642Z,2.30
2023-03-12T16:48:54.984Z,2.30
2023-03-12T16:52:00.843Z,2.30
2023-03-12T16:55:17.445Z,2.20
2023-03-12T16:58:29.338Z,2.20
2023-03-12T17:01:58.605Z,2.20
2023-03-12T17:05:03.718Z,2.10
2023-03-12T17:08:10.431Z,2.10
2023-03-12T17:15:34.238Z,2.00
2023-03-12T17:18:40.410Z,2.00
2023-03-12T17:21:46.564Z,1.90
2023-03-12T17:24:51.509Z,1.90
2023-03-12T17:27:58.200Z,1.90
2023-03-12T17:31:02.099Z,1.90
2023-03-12T17:34:09.214Z,1.90
2023-03-12T17:37:16.499Z,1.80
2023-03-12T17:40:25.801Z,1.80
2023-03-12T17:43:40.266Z,1.80
2023-03-12T17:46:56.498Z,1.70
2023-03-12T17:50:04.249Z,1.70
2023-03-12T17:53:09.849Z,1.70
2023-03-12T17:56:15.837Z,1.70
2023-03-12T17:59:20.115Z,1.70
2023-03-12T18:02:27.272Z,1.60
2023-03-12T18:05:30.652Z,1.60
2023-03-12T18:08:38.316Z,1.60
2023-03-12T18:11:41.954Z,1.50
2023-03-12T18:14:45.281Z,1.50
2023-03-12T18:17:51.950Z,1.50
2023-03-12T18:20:55.636Z,1.40
2023-03-12T18:24:08.249Z,1.50
2023-03-12T18:27:17.109Z,1.60
2023-03-12T18:30:21.181Z,1.70
2023-03-12T18:33:24.836Z,1.70
2023-03-12T18:36:28.562Z,1.80
2023-03-12T18:39:35.807Z,1.80
2023-03-12T18:42:48.667Z,1.80
2023-03-12T18:45:52.070Z,1.80
2023-03-12T18:48:58.042Z,1.80
2023-03-12T18:52:01.800Z,1.80
2023-03-12T18:55:07.502Z,1.80
2023-03-12T18:58:11.343Z,1.90
2023-03-12T19:01:14.860Z,2.00
2023-03-12T19:04:20.134Z,1.90
2023-03-12T19:07:24.162Z,1.90
2023-03-12T19:10:29.814Z,1.90
2023-03-12T19:13:35.364Z,1.90
2023-03-12T19:16:38.829Z,1.90
2023-03-12T19:19:42.424Z,1.80
2023-03-12T19:22:47.111Z,1.90
2023-03-12T19:25:52.024Z,1.80
2023-03-12T19:28:55.357Z,1.80
2023-03-12T19:31:58.776Z,1.80
2023-03-12T19:35:02.464Z,1.80
2023-03-12T19:38:06.307Z,1.80
2023-03-12T19:41:12.708Z,1.80
2023-03-12T19:44:16.033Z,1.80
2023-03-12T19:47:22.037Z,1.70
2023-03-12T19:50:25.497Z,1.60
2023-03-12T19:53:29.243Z,1.50
2023-03-12T19:56:35.212Z,1.40
2023-03-12T19:59:40.245Z,1.30
2023-03-12T20:02:48.833Z,1.20
2023-03-12T20:05:52.417Z,1.20
2023-03-12T20:08:55.999Z,1.20
2023-03-12T20:12:06.747Z,1.20
2023-03-12T20:15:11.329Z,1.10
2023-03-12T20:18:15.286Z,1.10
2023-03-12T20:21:18.877Z,1.00
2023-03-12T20:24:22.511Z,1.10
2023-03-12T20:27:31.150Z,1.20
2023-03-12T20:30:36.649Z,1.10
2023-03-12T20:33:41.984Z,1.10
2023-03-12T20:36:45.323Z,1.00
2023-03-12T20:39:48.741Z,1.00
2023-03-12T20:42:54.733Z,1.10
2023-03-12T20:45:58.081Z,1.10
2023-03-12T20:49:01.451Z,1.00
2023-03-12T20:52:06.346Z,1.00
2023-03-12T20:55:10.939Z,0.90
2023-03-12T20:58:17.941Z,0.90
2023-03-12T21:01:21.716Z,0.80
2023-03-12T21:04:25.336Z,0.80
2023-03-12T21:07:29.011Z,0.70
2023-03-12T21:10:32.288Z,0.70
2023-03-12T21:13:37.952Z,0.60
2023-03-12T21:16:41.445Z,0.40
2023-03-12T21:19:44.813Z,0.40
2023-03-12T21:22:48.274Z,0.30
2023-03-12T21:26:00.331Z,0.40
2023-03-12T21:29:05.111Z,0.30
2023-03-12T21:32:08.473Z,0.20
2023-03-12T21:35:12.402Z,0.10
2023-03-12T21:38:16.134Z,0.10
2023-03-12T21:41:20.823Z,0.20
2023-03-12T21:44:26.078Z,0.00
2023-03-12T21:47:30.622Z,-0.10
2023-03-12T21:50:36.044Z,-0.10
2023-03-12T21:53:39.709Z,-0.10
2023-03-12T21:56:44.451Z,-0.10
2023-03-12T21:59:50.099Z,-0.20
2023-03-12T22:02:56.476Z,-0.10
2023-03-12T22:06:01.939Z,-0.10
2023-03-12T22:09:05.598Z,0.10
2023-03-12T22:12:09.091Z,0.10
2023-03-12T22:15:16.136Z,0.10
2023-03-12T22:18:21.172Z,0.30
2023-03-12T22:21:25.700Z,0.50
2023-03-12T22:24:28.975Z,0.60
2023-03-12T22:27:32.197Z,0.80
2023-03-12T22:30:36.923Z,0.90
2023-03-12T22:33:40.256Z,0.90
2023-03-12T22:36:44.076Z,0.90
2023-03-12T22:39:47.472Z,1.00
2023-03-12T22:42:51.305Z,1.00
2023-03-12T22:45:56.218Z,1.00
2023-03-12T22:49:01.127Z,1.00
2023-03-12T22:52:04.660Z,1.00
2023-03-12T22:55:09.021Z,1.10
2023-03-12T22:58:12.221Z,1.10
2023-03-12T23:01:19.195Z,1.10
2023-03-12T23:04:22.792Z,1.10
2023-03-12T23:07:26.224Z,1.10
2023-03-12T23:10:30.195Z,1.10
2023-03-12T23:13:36.850Z,1.10
2023-03-12T23:16:41.570Z,1.20
2023-03-12T23:19:44.984Z,1.20
2023-03-12T23:22:48.240Z,1.20
2023-03-12T23:25:54.095Z,1.20
2023-03-12T23:28:59.610Z,1.30
2023-03-12T23:32:04.385Z,1.40
2023-03-12T23:35:08.249Z,1.40
2023-03-12T23:38:11.780Z,1.40
2023-03-12T23:41:17.073Z,1.40
2023-03-12T23:44:20.356Z,1.40
2023-03-12T23:47:25.201Z,1.40
2023-03-12T23:50:28.506Z,1.40
2023-03-12T23:53:31.972Z,1.40
2023-03-12T23:56:36.941Z,1.40
2023-03-12T23:59:40.081Z,1.40
